createdAt,value
2019-04-06T08:06:17.214Z,27.80
2019-04-06T08:08:39.938Z,27.67
2019-04-06T08:11:09.205Z,28.27
2019-04-06T08:13:31.778Z,27.97
2019-04-06T08:15:54.447Z,27.37
2019-04-06T08:18:19.088Z,27.80
2019-04-06T08:26:16.314Z,27.47
2019-04-06T08:28:39.043Z,28.60
2019-04-06T08:45:46.056Z,26.03
2019-04-06T11:21:10.528Z,11.97
2019-04-06T11:24:26.355Z,11.77
2019-04-06T11:27:11.754Z,12.10
2019-04-06T18:37:36.896Z,26.53
2019-04-06T18:40:01.875Z,27.83
2019-04-06T18:42:24.600Z,23.77
2019-04-06T18:44:47.337Z,36.83
2019-04-06T18:47:09.894Z,54.83
2019-04-06T18:49:32.451Z,36.57
2019-04-06T18:51:54.920Z,34.80
2019-04-06T18:54:17.496Z,19.67
2019-04-06T18:56:40.101Z,16.90
2019-04-06T18:59:02.924Z,16.10
2019-04-06T19:01:25.819Z,16.40
2019-04-06T19:03:48.523Z,16.57
2019-04-06T19:06:11.307Z,16.73
2019-04-06T19:08:34.290Z,15.80
2019-04-06T19:10:58.046Z,17.13
2019-04-06T19:13:20.657Z,17.23
2019-04-06T19:15:43.155Z,17.43
2019-04-06T19:18:05.660Z,16.77
2019-04-06T19:20:28.212Z,24.10
2019-04-06T19:22:50.848Z,24.77
2019-04-06T19:25:14.345Z,18.03
2019-04-06T19:27:37.340Z,15.27
2019-04-06T19:30:00.366Z,13.90
2019-04-06T19:32:24.126Z,16.53
2019-04-06T19:34:46.995Z,13.73
2019-04-06T19:37:10.384Z,14.17
2019-04-06T19:39:33.042Z,13.07
2019-04-06T19:41:55.579Z,14.30
2019-04-06T19:44:18.134Z,14.60
2019-04-06T19:46:40.603Z,15.77
2019-04-06T19:49:03.095Z,14.90
2019-04-06T19:51:26.450Z,14.17
2019-04-06T19:53:48.992Z,12.97
2019-04-06T19:56:12.035Z,12.67
2019-04-06T19:58:34.582Z,13.50
2019-04-06T20:00:57.418Z,13.27
